createdAt,value
2018-02-06T00:01:13.960Z,23.20
2018-02-06T00:03:40.231Z,21.02
2018-02-06T00:06:06.523Z,23.83
2018-02-06T00:08:33.121Z,19.90
2018-02-06T00:10:59.361Z,22.05
2018-02-06T00:13:25.962Z,23.98
2018-02-06T00:15:52.231Z,22.10
2018-02-06T00:18:18.806Z,20.70
2018-02-06T00:20:45.184Z,21.67
2018-02-06T00:23:11.411Z,24.00
2018-02-06T00:25:37.637Z,24.65
2018-02-06T00:28:03.922Z,21.30
2018-02-06T00:30:30.128Z,22.75
2018-02-06T00:32:56.452Z,23.80
2018-02-06T00:35:22.761Z,19.52
2018-02-06T00:37:48.970Z,22.87
2018-02-06T00:40:15.245Z,22.27
2018-02-06T00:42:41.581Z,21.60
2018-02-06T00:45:07.821Z,23.87
2018-02-06T00:47:34.047Z,19.23
2018-02-06T00:50:00.296Z,22.37
2018-02-06T00:52:26.499Z,21.73
2018-02-06T00:54:52.708Z,21.87
2018-02-06T00:57:19.824Z,24.37
2018-02-06T00:59:46.040Z,22.70
2018-02-06T01:02:12.279Z,23.75
2018-02-06T01:04:38.527Z,23.77
2018-02-06T01:07:05.591Z,24.08
2018-02-06T01:09:31.814Z,26.80
2018-02-06T01:11:58.024Z,24.25
2018-02-06T01:14:24.297Z,20.55
2018-02-06T01:16:50.548Z,25.15
2018-02-06T01:19:16.833Z,25.05
2018-02-06T01:21:43.089Z,25.20
2018-02-06T01:24:09.380Z,22.27
2018-02-06T01:26:35.989Z,26.08
2018-02-06T01:29:02.220Z,23.87
2018-02-06T01:31:28.499Z,20.12
2018-02-06T01:33:55.109Z,21.90
2018-02-06T01:36:21.739Z,24.95
2018-02-06T01:38:48.435Z,24.65
2018-02-06T01:41:14.674Z,25.90
2018-02-06T01:43:40.927Z,21.90
2018-02-06T01:46:07.139Z,23.62
2018-02-06T01:48:33.359Z,24.48
2018-02-06T01:50:59.555Z,24.05
2018-02-06T01:53:25.807Z,24.50
2018-02-06T01:55:52.732Z,23.85
2018-02-06T01:58:21.202Z,21.30
2018-02-06T02:00:47.491Z,24.52
2018-02-06T02:03:13.702Z,23.23
2018-02-06T02:05:39.946Z,22.58
2018-02-06T02:08:06.189Z,24.23
2018-02-06T02:10:32.887Z,23.05
2018-02-06T02:12:59.149Z,26.65
2018-02-06T02:15:25.728Z,27.20
2018-02-06T02:17:51.924Z,24.52
2018-02-06T02:20:18.516Z,25.12
2018-02-06T02:22:44.819Z,25.65
2018-02-06T02:25:11.595Z,23.87
2018-02-06T02:27:37.883Z,30.48
2018-02-06T02:30:04.261Z,23.77
2018-02-06T02:32:30.631Z,22.62
2018-02-06T02:34:56.887Z,26.00
2018-02-06T02:37:23.222Z,24.33
2018-02-06T02:39:49.419Z,25.85
2018-02-06T04:39:14.898Z,31.70
2018-02-06T04:41:41.249Z,28.17
2018-02-06T04:44:07.475Z,32.22
2018-02-06T04:46:34.046Z,33.40
2018-02-06T04:49:00.312Z,28.17
2018-02-06T04:51:26.863Z,30.52
2018-02-06T04:53:53.358Z,28.42
2018-02-06T04:56:19.545Z,34.45
2018-02-06T04:58:45.845Z,29.25
2018-02-06T05:01:12.489Z,28.90
2018-02-06T05:03:38.901Z,30.17
2018-02-06T05:06:05.480Z,30.00
2018-02-06T05:08:31.742Z,27.05
2018-02-06T05:10:58.034Z,30.70
2018-02-06T05:13:24.288Z,27.83
2018-02-06T05:15:50.531Z,28.73
2018-02-06T05:18:16.767Z,35.15
2018-02-06T05:20:43.019Z,26.55
2018-02-06T05:23:09.335Z,29.58
2018-02-06T05:25:35.949Z,31.35
2018-02-06T05:28:02.241Z,32.47
2018-02-06T05:30:28.836Z,29.73
2018-02-06T05:32:55.465Z,28.20
2018-02-06T05:35:21.688Z,33.78
2018-02-06T05:37:49.595Z,30.50
2018-02-06T05:40:15.866Z,37.50
2018-02-06T05:42:42.113Z,30.60
2018-02-06T05:45:08.376Z,26.95
2018-02-06T05:47:34.774Z,29.92
2018-02-06T05:50:01.060Z,28.30
2018-02-06T05:52:27.262Z,29.65
2018-02-06T05:54:53.880Z,32.17
2018-02-06T05:57:20.179Z,29.48
2018-02-06T05:59:46.432Z,32.08
2018-02-06T06:02:12.677Z,31.27
2018-02-06T06:04:38.972Z,30.75
2018-02-06T06:07:05.183Z,30.95
2018-02-06T06:09:31.743Z,30.90
2018-02-06T06:11:57.938Z,31.20
2018-02-06T06:14:24.168Z,30.00
2018-02-06T06:16:50.429Z,38.03
2018-02-06T06:19:16.663Z,30.25
2018-02-06T06:21:42.882Z,32.88
2018-02-06T06:24:10.045Z,28.62
2018-02-06T06:26:36.331Z,30.62
2018-02-06T06:29:02.528Z,28.30
2018-02-06T06:31:28.815Z,26.83
2018-02-06T06:33:55.529Z,36.22
2018-02-06T06:36:21.802Z,37.13
2018-02-06T06:38:48.145Z,29.55
2018-02-06T06:41:14.835Z,30.23
2018-02-06T06:43:41.145Z,32.30
2018-02-06T06:46:07.649Z,29.63
2018-02-06T06:48:34.280Z,32.60
2018-02-06T06:51:00.849Z,34.40
2018-02-06T06:53:27.168Z,30.17
2018-02-06T06:55:53.480Z,32.70
2018-02-06T06:58:19.752Z,32.05
2018-02-06T07:00:46.017Z,33.42
2018-02-06T07:03:12.806Z,35.40
2018-02-06T07:05:39.170Z,33.30
2018-02-06T07:08:05.522Z,31.65
2018-02-06T07:10:32.152Z,33.97
2018-02-06T07:12:58.459Z,36.88
2018-02-06T07:15:24.679Z,33.13
2018-02-06T07:17:50.996Z,34.60
2018-02-06T07:20:17.216Z,31.65
2018-02-06T07:22:43.462Z,33.47
2018-02-06T07:25:09.728Z,35.03
2018-02-06T07:27:35.955Z,31.85
2018-02-06T07:30:02.199Z,34.30
2018-02-06T07:32:28.835Z,32.22
2018-02-06T07:34:55.425Z,33.42
2018-02-06T07:37:22.323Z,30.42
2018-02-06T07:39:49.216Z,31.10
2018-02-06T07:42:15.469Z,30.42
2018-02-06T07:44:41.808Z,29.35
2018-02-06T07:47:08.103Z,32.47
2018-02-06T07:49:34.310Z,33.90
2018-02-06T07:52:00.505Z,33.55
2018-02-06T07:54:27.185Z,33.17
2018-02-06T07:56:53.502Z,28.70
2018-02-06T07:59:19.744Z,33.88
2018-02-06T08:01:46.547Z,33.33
2018-02-06T08:04:12.828Z,36.90
2018-02-06T08:06:39.711Z,36.95
2018-02-06T08:09:06.328Z,32.22
2018-02-06T08:11:32.820Z,33.25
2018-02-06T08:13:59.012Z,32.90
2018-02-06T08:16:25.584Z,37.55
2018-02-06T08:18:51.858Z,34.70
2018-02-06T08:21:18.071Z,32.67
2018-02-06T08:23:44.303Z,34.20
2018-02-06T08:26:10.523Z,38.25
2018-02-06T08:28:36.810Z,31.77
2018-02-06T08:31:03.055Z,34.80
2018-02-06T08:33:29.301Z,32.67
2018-02-06T08:35:55.572Z,32.65
2018-02-06T08:38:21.801Z,34.50
2018-02-06T08:40:48.423Z,32.00
2018-02-06T08:43:14.657Z,30.25
2018-02-06T08:45:41.717Z,37.63
2018-02-06T08:48:08.004Z,35.38
2018-02-06T08:50:34.218Z,34.75
2018-02-06T08:53:00.450Z,34.65
2018-02-06T08:55:26.656Z,31.08
2018-02-06T08:57:53.451Z,37.53
2018-02-06T09:00:19.705Z,37.15
2018-02-06T09:02:45.953Z,33.20
2018-02-06T09:05:12.194Z,35.53
2018-02-06T09:07:38.411Z,36.13
2018-02-06T09:10:04.633Z,34.90
2018-02-06T09:12:30.901Z,34.20
2018-02-06T09:14:57.209Z,39.05
2018-02-06T09:17:23.425Z,42.28
2018-02-06T09:19:49.690Z,35.00
2018-02-06T09:22:15.894Z,35.00
2018-02-06T09:24:42.467Z,35.20
2018-02-06T09:27:08.731Z,35.47
2018-02-06T09:29:35.330Z,35.08
2018-02-06T09:32:01.582Z,35.15
2018-02-06T09:34:28.232Z,34.60
2018-02-06T09:36:54.788Z,34.97
2018-02-06T09:39:21.051Z,35.95
2018-02-06T09:41:47.270Z,35.10
2018-02-06T09:44:13.495Z,34.92
2018-02-06T09:46:39.845Z,36.67
2018-02-06T09:49:06.045Z,33.10
2018-02-06T09:51:32.288Z,32.35
2018-02-06T09:53:58.499Z,39.17
2018-02-06T09:56:24.717Z,37.80
2018-02-06T09:58:50.896Z,34.40
2018-02-06T10:01:17.106Z,32.85
2018-02-06T10:03:43.334Z,35.60
2018-02-06T10:06:09.599Z,33.25
2018-02-06T10:08:36.202Z,36.10
2018-02-06T10:11:02.464Z,35.08
2018-02-06T10:13:29.410Z,36.10
2018-02-06T10:15:55.583Z,37.88
2018-02-06T10:18:21.778Z,32.42
2018-02-06T10:20:48.011Z,33.25
2018-02-06T10:23:14.200Z,34.65
2018-02-06T10:25:40.497Z,35.78
2018-02-06T10:28:06.730Z,31.33
2018-02-06T10:30:33.334Z,31.30
2018-02-06T10:32:59.550Z,36.60
2018-02-06T10:35:26.690Z,37.78
2018-02-06T10:37:52.985Z,36.45
2018-02-06T10:40:19.908Z,36.10
2018-02-06T10:42:46.151Z,35.20
2018-02-06T10:45:12.345Z,32.65
2018-02-06T10:47:38.941Z,33.42
2018-02-06T10:50:05.173Z,32.78
2018-02-06T10:52:31.734Z,33.95
2018-02-06T10:54:58.057Z,33.80
2018-02-06T10:57:24.639Z,35.03
2018-02-06T10:59:50.898Z,33.95
2018-02-06T11:02:17.570Z,33.88
2018-02-06T11:04:43.797Z,38.00
2018-02-06T11:07:10.034Z,30.33
2018-02-06T11:09:36.229Z,32.78
2018-02-06T11:12:02.818Z,35.63
2018-02-06T11:14:29.056Z,36.42
2018-02-06T11:16:55.266Z,33.25
2018-02-06T11:19:21.523Z,36.78
2018-02-06T11:21:48.632Z,36.03
2018-02-06T11:24:14.887Z,32.15
2018-02-06T11:26:41.375Z,36.40
2018-02-06T11:29:07.977Z,36.58
2018-02-06T11:31:34.286Z,37.25
2018-02-06T11:34:00.593Z,33.35
2018-02-06T11:36:26.777Z,33.72
2018-02-06T11:38:53.506Z,33.58
2018-02-06T11:41:20.130Z,35.40
2018-02-06T11:43:46.368Z,34.05
2018-02-06T11:46:12.655Z,32.78
2018-02-06T11:48:38.926Z,38.03
2018-02-06T11:51:05.416Z,35.72
2018-02-06T11:53:31.641Z,32.10
2018-02-06T11:55:57.870Z,35.72
2018-02-06T11:58:24.114Z,31.75
2018-02-06T12:00:50.474Z,38.30
2018-02-06T12:03:16.678Z,33.08
2018-02-06T12:05:42.915Z,30.98
2018-02-06T12:08:09.185Z,32.63
2018-02-06T12:10:35.358Z,36.92
2018-02-06T12:13:01.575Z,29.98
2018-02-06T12:15:27.792Z,28.27
2018-02-06T12:17:54.039Z,29.63
2018-02-06T12:20:20.321Z,30.80
2018-02-06T12:22:47.689Z,30.48
2018-02-06T12:25:14.262Z,31.45
2018-02-06T12:27:41.314Z,29.90
2018-02-06T12:30:07.587Z,30.37
2018-02-06T12:32:34.241Z,29.52
2018-02-06T12:35:00.478Z,27.13
2018-02-06T12:37:26.711Z,28.55
2018-02-06T12:39:52.943Z,28.83
2018-02-06T12:42:19.169Z,30.88
2018-02-06T12:44:45.387Z,30.00
2018-02-06T12:47:11.674Z,32.33
2018-02-06T12:49:37.917Z,28.62
2018-02-06T12:52:04.523Z,30.95
2018-02-06T12:54:30.728Z,28.12
2018-02-06T12:56:56.936Z,28.62
2018-02-06T12:59:23.173Z,28.58
2018-02-06T13:01:49.407Z,29.00
2018-02-06T13:04:15.641Z,30.02
2018-02-06T13:06:41.936Z,31.37
2018-02-06T13:09:08.221Z,28.23
2018-02-06T13:11:34.470Z,34.17
2018-02-06T13:14:01.083Z,30.45
2018-02-06T13:16:27.323Z,35.67
2018-02-06T13:18:53.533Z,31.05
2018-02-06T13:21:19.730Z,37.80
2018-02-06T13:23:45.921Z,33.28
2018-02-06T13:26:12.134Z,32.72
2018-02-06T13:28:38.361Z,29.75
2018-02-06T13:31:04.607Z,31.62
2018-02-06T13:33:30.800Z,32.95
2018-02-06T13:35:57.027Z,31.15
2018-02-06T13:38:23.232Z,30.65
2018-02-06T13:40:49.467Z,32.90
2018-02-06T13:43:15.714Z,28.70
2018-02-06T13:45:41.975Z,32.05
2018-02-06T13:48:08.217Z,32.95
2018-02-06T13:50:34.790Z,29.15
2018-02-06T13:53:00.985Z,31.55
2018-02-06T13:55:27.583Z,30.98
2018-02-06T13:57:54.171Z,31.15
